Terminal Aerodrome Forecast
Issued by NWS La Crosse, WI

Home | Current Version | Previous Version | Text Only | Print | Product List | Glossary On
Versions: 1 2 3 4 5 6 7 8 9 10 11 12 13 14 15 16 17 18 19 20 21 22 23 24 25 26 27 28 29 30
000
FTUS43 KARX 290520
TAFLSE
TAF
KLSE 290520Z 2906/3006 26006KT P6SM SCT100
     FM291200 27014KT P6SM BKN040
     FM291700 28014G24KT P6SM VCSH OVC045
     FM300000 29010KT P6SM BKN045=

USA.gov is the U.S. government's official web portal to all federal, state and local government web resources and services.